sensor_id;sensor_type;location;lat;lon;timestamp;P1;durP1;ratioP1;P2;durP2;ratioP2
45842;SDS011;31563;51.744;8.252;2023-06-24T00:00:56;0.90;;;0.90;;
45842;SDS011;31563;51.744;8.252;2023-06-24T00:03:24;1.37;;;1.13;;
45842;SDS011;31563;51.744;8.252;2023-06-24T00:05:53;1.20;;;1.10;;
45842;SDS011;31563;51.744;8.252;2023-06-24T00:08:23;1.27;;;1.17;;
45842;SDS011;31563;51.744;8.252;2023-06-24T00:11:02;1.00;;;0.90;;
45842;SDS011;31563;51.744;8.252;2023-06-24T00:13:30;1.10;;;1.00;;
45842;SDS011;31563;51.744;8.252;2023-06-24T00:15:59;1.00;;;1.00;;
45842;SDS011;31563;51.744;8.252;2023-06-24T00:18:27;0.90;;;0.90;;
45842;SDS011;31563;51.744;8.252;2023-06-24T00:20:56;1.17;;;1.00;;
45842;SDS011;31563;51.744;8.252;2023-06-24T00:23:24;1.10;;;1.00;;
45842;SDS011;31563;51.744;8.252;2023-06-24T00:25:53;1.02;;;0.93;;
45842;SDS011;31563;51.744;8.252;2023-06-24T00:28:23;0.98;;;0.82;;
45842;SDS011;31563;51.744;8.252;2023-06-24T00:30:51;1.40;;;1.00;;
45842;SDS011;31563;51.744;8.252;2023-06-24T00:33:19;1.75;;;0.90;;
45842;SDS011;31563;51.744;8.252;2023-06-24T00:35:48;1.30;;;0.93;;
45842;SDS011;31563;51.744;8.252;2023-06-24T00:38:16;1.20;;;0.98;;
45842;SDS011;31563;51.744;8.252;2023-06-24T00:40:44;1.30;;;1.20;;
45842;SDS011;31563;51.744;8.252;2023-06-24T00:43:12;1.10;;;1.00;;
45842;SDS011;31563;51.744;8.252;2023-06-24T00:45:42;1.17;;;1.08;;
45842;SDS011;31563;51.744;8.252;2023-06-24T00:48:15;1.13;;;0.90;;
45842;SDS011;31563;51.744;8.252;2023-06-24T00:50:43;0.97;;;0.87;;
45842;SDS011;31563;51.744;8.252;2023-06-24T00:53:12;0.88;;;0.85;;
45842;SDS011;31563;51.744;8.252;2023-06-24T00:55:40;1.08;;;0.98;;
45842;SDS011;31563;51.744;8.252;2023-06-24T00:58:08;1.10;;;1.00;;
45842;SDS011;31563;51.744;8.252;2023-06-24T01:00:36;0.80;;;0.80;;
45842;SDS011;31563;51.744;8.252;2023-06-24T01:03:06;0.80;;;0.80;;
45842;SDS011;31563;51.744;8.252;2023-06-24T01:05:35;0.80;;;0.80;;
45842;SDS011;31563;51.744;8.252;2023-06-24T01:08:04;1.00;;;0.90;;
45842;SDS011;31563;51.744;8.252;2023-06-24T01:10:32;1.17;;;1.07;;
45842;SDS011;31563;51.744;8.252;2023-06-24T01:13:00;1.05;;;0.98;;
45842;SDS011;31563;51.744;8.252;2023-06-24T01:15:28;1.02;;;0.90;;
45842;SDS011;31563;51.744;8.252;2023-06-24T01:17:59;1.33;;;1.23;;
45842;SDS011;31563;51.744;8.252;2023-06-24T01:20:38;0.90;;;0.90;;
45842;SDS011;31563;51.744;8.252;2023-06-24T01:26:26;1.38;;;1.25;;
45842;SDS011;31563;51.744;8.252;2023-06-24T01:32:29;1.95;;;1.00;;
45842;SDS011;31563;51.744;8.252;2023-06-24T01:35:04;1.23;;;1.13;;
45842;SDS011;31563;51.744;8.252;2023-06-24T01:37:37;1.10;;;1.00;;
45842;SDS011;31563;51.744;8.252;2023-06-24T01:40:09;1.20;;;1.10;;
45842;SDS011;31563;51.744;8.252;2023-06-24T01:42:40;1.20;;;1.10;;
45842;SDS011;31563;51.744;8.252;2023-06-24T01:45:10;1.10;;;1.00;;
45842;SDS011;31563;51.744;8.252;2023-06-24T01:47:43;1.35;;;1.17;;
45842;SDS011;31563;51.744;8.252;2023-06-24T01:50:15;1.20;;;1.10;;
45842;SDS011;31563;51.744;8.252;2023-06-24T01:52:48;1.27;;;1.13;;
45842;SDS011;31563;51.744;8.252;2023-06-24T01:55:20;0.93;;;0.93;;
45842;SDS011;31563;51.744;8.252;2023-06-24T01:57:50;1.00;;;0.90;;
45842;SDS011;31563;51.744;8.252;2023-06-24T02:00:20;1.00;;;0.85;;
45842;SDS011;31563;51.744;8.252;2023-06-24T02:02:51;1.20;;;0.88;;
45842;SDS011;31563;51.744;8.252;2023-06-24T02:05:21;1.20;;;1.10;;
45842;SDS011;31563;51.744;8.252;2023-06-24T02:07:52;1.10;;;1.00;;
45842;SDS011;31563;51.744;8.252;2023-06-24T02:10:21;0.88;;;0.85;;
45842;SDS011;31563;51.744;8.252;2023-06-24T02:15:20;1.30;;;1.20;;
45842;SDS011;31563;51.744;8.252;2023-06-24T02:17:50;1.20;;;1.10;;
45842;SDS011;31563;51.744;8.252;2023-06-24T02:20:23;1.42;;;0.90;;
45842;SDS011;31563;51.744;8.252;2023-06-24T02:22:54;0.80;;;0.80;;
45842;SDS011;31563;51.744;8.252;2023-06-24T02:25:24;1.05;;;0.90;;
45842;SDS011;31563;51.744;8.252;2023-06-24T02:27:53;1.10;;;1.00;;
45842;SDS011;31563;51.744;8.252;2023-06-24T02:30:24;2.08;;;1.20;;
45842;SDS011;31563;51.744;8.252;2023-06-24T02:32:54;1.27;;;1.00;;
45842;SDS011;31563;51.744;8.252;2023-06-24T02:35:23;1.20;;;1.10;;
45842;SDS011;31563;51.744;8.252;2023-06-24T02:37:52;1.33;;;1.23;;
45842;SDS011;31563;51.744;8.252;2023-06-24T02:40:20;1.20;;;0.98;;
45842;SDS011;31563;51.744;8.252;2023-06-24T02:42:48;1.08;;;0.98;;
45842;SDS011;31563;51.744;8.252;2023-06-24T02:45:16;1.25;;;1.15;;
45842;SDS011;31563;51.744;8.252;2023-06-24T02:47:45;1.13;;;1.03;;
45842;SDS011;31563;51.744;8.252;2023-06-24T02:50:16;0.90;;;0.90;;
45842;SDS011;31563;51.744;8.252;2023-06-24T02:52:45;1.20;;;1.10;;
45842;SDS011;31563;51.744;8.252;2023-06-24T02:55:13;1.37;;;0.97;;
45842;SDS011;31563;51.744;8.252;2023-06-24T02:57:42;1.40;;;1.10;;
45842;SDS011;31563;51.744;8.252;2023-06-24T03:00:11;1.13;;;1.02;;
45842;SDS011;31563;51.744;8.252;2023-06-24T03:02:41;1.35;;;1.20;;
45842;SDS011;31563;51.744;8.252;2023-06-24T03:05:11;1.20;;;1.10;;
45842;SDS011;31563;51.744;8.252;2023-06-24T03:07:40;1.30;;;0.90;;
45842;SDS011;31563;51.744;8.252;2023-06-24T03:10:09;1.02;;;0.93;;
45842;SDS011;31563;51.744;8.252;2023-06-24T03:15:06;1.08;;;0.98;;
45842;SDS011;31563;51.744;8.252;2023-06-24T03:17:35;1.83;;;1.05;;
45842;SDS011;31563;51.744;8.252;2023-06-24T03:20:04;1.20;;;1.10;;
45842;SDS011;31563;51.744;8.252;2023-06-24T03:22:34;1.20;;;1.10;;
45842;SDS011;31563;51.744;8.252;2023-06-24T03:25:04;0.80;;;0.80;;
45842;SDS011;31563;51.744;8.252;2023-06-24T03:27:33;1.10;;;1.00;;
45842;SDS011;31563;51.744;8.252;2023-06-24T03:30:03;1.30;;;1.20;;
45842;SDS011;31563;51.744;8.252;2023-06-24T03:32:32;1.15;;;1.05;;
45842;SDS011;31563;51.744;8.252;2023-06-24T03:35:02;1.50;;;1.00;;
45842;SDS011;31563;51.744;8.252;2023-06-24T03:37:30;1.15;;;0.90;;
45842;SDS011;31563;51.744;8.252;2023-06-24T03:39:58;1.45;;;1.10;;
45842;SDS011;31563;51.744;8.252;2023-06-24T03:42:28;0.80;;;0.80;;
45842;SDS011;31563;51.744;8.252;2023-06-24T03:44:56;1.88;;;0.93;;
45842;SDS011;31563;51.744;8.252;2023-06-24T03:47:24;1.17;;;1.08;;
45842;SDS011;31563;51.744;8.252;2023-06-24T03:49:53;1.20;;;1.10;;
45842;SDS011;31563;51.744;8.252;2023-06-24T03:52:21;1.27;;;1.00;;
45842;SDS011;31563;51.744;8.252;2023-06-24T03:54:49;1.10;;;1.00;;
45842;SDS011;31563;51.744;8.252;2023-06-24T03:57:17;1.30;;;1.20;;
45842;SDS011;31563;51.744;8.252;2023-06-24T03:59:47;1.35;;;1.25;;
45842;SDS011;31563;51.744;8.252;2023-06-24T04:02:15;1.27;;;1.10;;
45842;SDS011;31563;51.744;8.252;2023-06-24T04:04:44;1.20;;;1.10;;
45842;SDS011;31563;51.744;8.252;2023-06-24T04:07:16;1.10;;;1.00;;
45842;SDS011;31563;51.744;8.252;2023-06-24T04:09:54;1.27;;;1.17;;
45842;SDS011;31563;51.744;8.252;2023-06-24T04:12:23;1.40;;;1.27;;
45842;SDS011;31563;51.744;8.252;2023-06-24T04:14:52;1.20;;;1.10;;
45842;SDS011;31563;51.744;8.252;2023-06-24T04:17:21;1.00;;;0.90;;
45842;SDS011;31563;51.744;8.252;2023-06-24T04:19:50;1.00;;;0.90;;
45842;SDS011;31563;51.744;8.252;2023-06-24T04:22:18;1.20;;;1.10;;
45842;SDS011;31563;51.744;8.252;2023-06-24T04:24:46;1.45;;;1.35;;
45842;SDS011;31563;51.744;8.252;2023-06-24T04:27:14;1.20;;;1.10;;
45842;SDS011;31563;51.744;8.252;2023-06-24T04:29:43;1.45;;;1.10;;
45842;SDS011;31563;51.744;8.252;2023-06-24T04:32:12;1.23;;;1.13;;
45842;SDS011;31563;51.744;8.252;2023-06-24T04:34:40;1.10;;;1.00;;
45842;SDS011;31563;51.744;8.252;2023-06-24T04:37:09;1.25;;;1.15;;
45842;SDS011;31563;51.744;8.252;2023-06-24T04:39:37;0.80;;;0.80;;
45842;SDS011;31563;51.744;8.252;2023-06-24T04:42:05;1.10;;;1.00;;
45842;SDS011;31563;51.744;8.252;2023-06-24T04:44:34;1.05;;;1.00;;
45842;SDS011;31563;51.744;8.252;2023-06-24T04:47:02;1.88;;;1.05;;
45842;SDS011;31563;51.744;8.252;2023-06-24T04:49:32;1.27;;;1.17;;
45842;SDS011;31563;51.744;8.252;2023-06-24T04:52:00;1.52;;;1.10;;
45842;SDS011;31563;51.744;8.252;2023-06-24T04:54:29;1.38;;;1.27;;
45842;SDS011;31563;51.744;8.252;2023-06-24T04:56:57;1.25;;;1.15;;
45842;SDS011;31563;51.744;8.252;2023-06-24T04:59:25;1.10;;;1.00;;
45842;SDS011;31563;51.744;8.252;2023-06-24T05:04:55;1.27;;;1.17;;
45842;SDS011;31563;51.744;8.252;2023-06-24T05:07:23;0.95;;;0.90;;
45842;SDS011;31563;51.744;8.252;2023-06-24T05:09:51;2.25;;;1.13;;
45842;SDS011;31563;51.744;8.252;2023-06-24T05:12:20;1.10;;;1.00;;
45842;SDS011;31563;51.744;8.252;2023-06-24T05:14:49;1.52;;;1.15;;
45842;SDS011;31563;51.744;8.252;2023-06-24T05:17:19;1.08;;;0.98;;
45842;SDS011;31563;51.744;8.252;2023-06-24T05:19:48;1.23;;;1.10;;
45842;SDS011;31563;51.744;8.252;2023-06-24T05:22:17;1.27;;;1.17;;
45842;SDS011;31563;51.744;8.252;2023-06-24T05:24:45;1.20;;;1.08;;
45842;SDS011;31563;51.744;8.252;2023-06-24T05:27:13;1.17;;;1.05;;
45842;SDS011;31563;51.744;8.252;2023-06-24T05:29:42;2.38;;;1.13;;
45842;SDS011;31563;51.744;8.252;2023-06-24T05:32:10;1.23;;;1.10;;
45842;SDS011;31563;51.744;8.252;2023-06-24T05:34:38;1.08;;;0.98;;
45842;SDS011;31563;51.744;8.252;2023-06-24T05:37:06;0.85;;;0.82;;
45842;SDS011;31563;51.744;8.252;2023-06-24T05:39:36;0.93;;;0.85;;
45842;SDS011;31563;51.744;8.252;2023-06-24T05:42:04;0.98;;;0.88;;
45842;SDS011;31563;51.744;8.252;2023-06-24T05:44:33;1.02;;;1.00;;
45842;SDS011;31563;51.744;8.252;2023-06-24T05:47:06;1.52;;;1.10;;
45842;SDS011;31563;51.744;8.252;2023-06-24T05:49:34;1.10;;;0.90;;
45842;SDS011;31563;51.744;8.252;2023-06-24T05:52:02;1.70;;;1.20;;
45842;SDS011;31563;51.744;8.252;2023-06-24T05:54:31;1.30;;;1.20;;
45842;SDS011;31563;51.744;8.252;2023-06-24T05:57:00;1.10;;;1.00;;
45842;SDS011;31563;51.744;8.252;2023-06-24T05:59:32;1.23;;;1.13;;
45842;SDS011;31563;51.744;8.252;2023-06-24T06:02:00;1.30;;;1.20;;
45842;SDS011;31563;51.744;8.252;2023-06-24T06:04:29;1.55;;;1.20;;
45842;SDS011;31563;51.744;8.252;2023-06-24T06:06:57;1.05;;;0.95;;
45842;SDS011;31563;51.744;8.252;2023-06-24T06:09:25;0.90;;;0.90;;
45842;SDS011;31563;51.744;8.252;2023-06-24T06:11:53;1.13;;;1.02;;
45842;SDS011;31563;51.744;8.252;2023-06-24T06:14:22;1.25;;;1.15;;
45842;SDS011;31563;51.744;8.252;2023-06-24T06:16:51;1.00;;;0.90;;
45842;SDS011;31563;51.744;8.252;2023-06-24T06:19:19;1.10;;;1.00;;
45842;SDS011;31563;51.744;8.252;2023-06-24T06:21:48;1.42;;;1.20;;
45842;SDS011;31563;51.744;8.252;2023-06-24T06:24:17;1.17;;;1.08;;
45842;SDS011;31563;51.744;8.252;2023-06-24T06:26:46;1.17;;;1.08;;
45842;SDS011;31563;51.744;8.252;2023-06-24T06:29:14;1.53;;;0.90;;
45842;SDS011;31563;51.744;8.252;2023-06-24T06:31:44;1.02;;;0.93;;
45842;SDS011;31563;51.744;8.252;2023-06-24T06:34:12;1.08;;;1.00;;
45842;SDS011;31563;51.744;8.252;2023-06-24T06:36:40;1.20;;;1.10;;
45842;SDS011;31563;51.744;8.252;2023-06-24T06:39:08;1.15;;;1.05;;
45842;SDS011;31563;51.744;8.252;2023-06-24T06:41:36;1.20;;;1.10;;
45842;SDS011;31563;51.744;8.252;2023-06-24T06:44:04;0.90;;;0.90;;
45842;SDS011;31563;51.744;8.252;2023-06-24T06:46:33;0.87;;;0.87;;
45842;SDS011;31563;51.744;8.252;2023-06-24T06:49:02;1.50;;;1.08;;
45842;SDS011;31563;51.744;8.252;2023-06-24T06:51:31;1.42;;;1.00;;
45842;SDS011;31563;51.744;8.252;2023-06-24T06:56:28;0.90;;;0.80;;
45842;SDS011;31563;51.744;8.252;2023-06-24T06:58:56;1.10;;;1.00;;
45842;SDS011;31563;51.744;8.252;2023-06-24T07:01:24;1.10;;;0.90;;
45842;SDS011;31563;51.744;8.252;2023-06-24T07:03:52;1.30;;;1.20;;
45842;SDS011;31563;51.744;8.252;2023-06-24T07:06:22;1.02;;;0.80;;
45842;SDS011;31563;51.744;8.252;2023-06-24T07:08:50;0.98;;;0.98;;
45842;SDS011;31563;51.744;8.252;2023-06-24T07:11:18;1.05;;;1.00;;
45842;SDS011;31563;51.744;8.252;2023-06-24T07:13:46;1.05;;;0.93;;
45842;SDS011;31563;51.744;8.252;2023-06-24T07:16:17;0.95;;;0.88;;
45842;SDS011;31563;51.744;8.252;2023-06-24T07:18:45;0.75;;;0.75;;
45842;SDS011;31563;51.744;8.252;2023-06-24T07:21:14;1.17;;;1.08;;
45842;SDS011;31563;51.744;8.252;2023-06-24T07:23:43;1.00;;;0.80;;
45842;SDS011;31563;51.744;8.252;2023-06-24T07:26:12;0.73;;;0.73;;
45842;SDS011;31563;51.744;8.252;2023-06-24T07:28:40;0.82;;;0.77;;
45842;SDS011;31563;51.744;8.252;2023-06-24T07:31:11;1.00;;;0.90;;
45842;SDS011;31563;51.744;8.252;2023-06-24T07:33:40;0.88;;;0.80;;
45842;SDS011;31563;51.744;8.252;2023-06-24T07:39:20;0.88;;;0.75;;
45842;SDS011;31563;51.744;8.252;2023-06-24T07:41:48;0.90;;;0.90;;
45842;SDS011;31563;51.744;8.252;2023-06-24T07:44:16;1.35;;;1.00;;
45842;SDS011;31563;51.744;8.252;2023-06-24T07:49:14;0.98;;;0.88;;
45842;SDS011;31563;51.744;8.252;2023-06-24T07:51:42;1.10;;;1.00;;
45842;SDS011;31563;51.744;8.252;2023-06-24T07:54:11;0.80;;;0.73;;
45842;SDS011;31563;51.744;8.252;2023-06-24T07:56:41;1.20;;;0.90;;
45842;SDS011;31563;51.744;8.252;2023-06-24T07:59:09;0.70;;;0.70;;
45842;SDS011;31563;51.744;8.252;2023-06-24T08:01:37;0.60;;;0.60;;
45842;SDS011;31563;51.744;8.252;2023-06-24T08:04:05;1.45;;;0.68;;
45842;SDS011;31563;51.744;8.252;2023-06-24T08:06:33;0.50;;;0.50;;
45842;SDS011;31563;51.744;8.252;2023-06-24T08:09:01;0.60;;;0.60;;
45842;SDS011;31563;51.744;8.252;2023-06-24T08:11:30;0.80;;;0.80;;
45842;SDS011;31563;51.744;8.252;2023-06-24T08:13:59;0.70;;;0.70;;
45842;SDS011;31563;51.744;8.252;2023-06-24T08:16:28;0.60;;;0.60;;
45842;SDS011;31563;51.744;8.252;2023-06-24T08:18:56;0.70;;;0.70;;
45842;SDS011;31563;51.744;8.252;2023-06-24T08:21:24;1.65;;;1.10;;
45842;SDS011;31563;51.744;8.252;2023-06-24T08:23:52;0.63;;;0.60;;
45842;SDS011;31563;51.744;8.252;2023-06-24T08:26:21;0.63;;;0.60;;
45842;SDS011;31563;51.744;8.252;2023-06-24T08:28:50;0.70;;;0.70;;
45842;SDS011;31563;51.744;8.252;2023-06-24T08:31:19;0.60;;;0.60;;
45842;SDS011;31563;51.744;8.252;2023-06-24T08:33:51;0.60;;;0.60;;
45842;SDS011;31563;51.744;8.252;2023-06-24T08:36:21;0.70;;;0.60;;
45842;SDS011;31563;51.744;8.252;2023-06-24T08:38:50;0.85;;;0.85;;
45842;SDS011;31563;51.744;8.252;2023-06-24T08:41:18;0.60;;;0.60;;
45842;SDS011;31563;51.744;8.252;2023-06-24T08:43:47;0.50;;;0.50;;
45842;SDS011;31563;51.744;8.252;2023-06-24T08:46:15;1.00;;;0.70;;
45842;SDS011;31563;51.744;8.252;2023-06-24T08:48:47;0.70;;;0.50;;
45842;SDS011;31563;51.744;8.252;2023-06-24T08:51:17;0.63;;;0.63;;
45842;SDS011;31563;51.744;8.252;2023-06-24T08:53:48;0.60;;;0.60;;
45842;SDS011;31563;51.744;8.252;2023-06-24T08:56:16;0.85;;;0.77;;
45842;SDS011;31563;51.744;8.252;2023-06-24T08:58:44;0.93;;;0.60;;
45842;SDS011;31563;51.744;8.252;2023-06-24T09:01:12;0.70;;;0.70;;
45842;SDS011;31563;51.744;8.252;2023-06-24T09:03:41;0.57;;;0.50;;
45842;SDS011;31563;51.744;8.252;2023-06-24T09:06:10;0.50;;;0.50;;
45842;SDS011;31563;51.744;8.252;2023-06-24T09:08:39;0.60;;;0.57;;
45842;SDS011;31563;51.744;8.252;2023-06-24T09:11:08;0.55;;;0.55;;
45842;SDS011;31563;51.744;8.252;2023-06-24T09:13:36;0.98;;;0.60;;
45842;SDS011;31563;51.744;8.252;2023-06-24T09:16:11;0.65;;;0.60;;
45842;SDS011;31563;51.744;8.252;2023-06-24T09:18:40;0.50;;;0.50;;
45842;SDS011;31563;51.744;8.252;2023-06-24T09:21:11;0.60;;;0.60;;
45842;SDS011;31563;51.744;8.252;2023-06-24T09:23:39;0.82;;;0.70;;
45842;SDS011;31563;51.744;8.252;2023-06-24T09:28:37;0.50;;;0.50;;
45842;SDS011;31563;51.744;8.252;2023-06-24T09:31:05;0.43;;;0.40;;
45842;SDS011;31563;51.744;8.252;2023-06-24T09:33:45;0.40;;;0.40;;
45842;SDS011;31563;51.744;8.252;2023-06-24T09:36:15;0.80;;;0.50;;
45842;SDS011;31563;51.744;8.252;2023-06-24T09:38:43;0.50;;;0.50;;
45842;SDS011;31563;51.744;8.252;2023-06-24T09:41:12;0.40;;;0.40;;
45842;SDS011;31563;51.744;8.252;2023-06-24T09:43:42;0.65;;;0.63;;
45842;SDS011;31563;51.744;8.252;2023-06-24T09:46:11;0.60;;;0.57;;
45842;SDS011;31563;51.744;8.252;2023-06-24T09:48:40;0.47;;;0.47;;
45842;SDS011;31563;51.744;8.252;2023-06-24T09:51:08;0.60;;;0.50;;
45842;SDS011;31563;51.744;8.252;2023-06-24T09:53:41;0.47;;;0.40;;
45842;SDS011;31563;51.744;8.252;2023-06-24T09:56:11;0.70;;;0.40;;
45842;SDS011;31563;51.744;8.252;2023-06-24T09:58:42;0.50;;;0.50;;
45842;SDS011;31563;51.744;8.252;2023-06-24T10:01:13;0.40;;;0.40;;
45842;SDS011;31563;51.744;8.252;2023-06-24T10:03:43;0.40;;;0.40;;
45842;SDS011;31563;51.744;8.252;2023-06-24T10:06:11;0.50;;;0.45;;
45842;SDS011;31563;51.744;8.252;2023-06-24T10:11:09;0.50;;;0.40;;
45842;SDS011;31563;51.744;8.252;2023-06-24T10:13:37;0.40;;;0.40;;
45842;SDS011;31563;51.744;8.252;2023-06-24T10:18:37;0.57;;;0.57;;
45842;SDS011;31563;51.744;8.252;2023-06-24T10:21:06;0.40;;;0.40;;
45842;SDS011;31563;51.744;8.252;2023-06-24T10:26:21;1.30;;;0.40;;
45842;SDS011;31563;51.744;8.252;2023-06-24T10:31:53;0.38;;;0.38;;
45842;SDS011;31563;51.744;8.252;2023-06-24T10:34:26;0.68;;;0.40;;
45842;SDS011;31563;51.744;8.252;2023-06-24T10:36:55;0.50;;;0.50;;
45842;SDS011;31563;51.744;8.252;2023-06-24T10:39:40;0.30;;;0.30;;
45842;SDS011;31563;51.744;8.252;2023-06-24T10:45:15;0.55;;;0.47;;
45842;SDS011;31563;51.744;8.252;2023-06-24T10:47:48;0.43;;;0.40;;
45842;SDS011;31563;51.744;8.252;2023-06-24T10:50:20;0.60;;;0.50;;
45842;SDS011;31563;51.744;8.252;2023-06-24T10:52:50;0.40;;;0.40;;
45842;SDS011;31563;51.744;8.252;2023-06-24T10:55:23;0.35;;;0.35;;
45842;SDS011;31563;51.744;8.252;2023-06-24T10:57:52;0.40;;;0.38;;
45842;SDS011;31563;51.744;8.252;2023-06-24T11:00:21;0.57;;;0.40;;
45842;SDS011;31563;51.744;8.252;2023-06-24T11:02:49;0.47;;;0.40;;
45842;SDS011;31563;51.744;8.252;2023-06-24T11:05:17;0.40;;;0.40;;
45842;SDS011;31563;51.744;8.252;2023-06-24T11:07:47;0.40;;;0.40;;
45842;SDS011;31563;51.744;8.252;2023-06-24T11:10:16;0.30;;;0.30;;
45842;SDS011;31563;51.744;8.252;2023-06-24T11:12:46;0.30;;;0.30;;
45842;SDS011;31563;51.744;8.252;2023-06-24T11:15:14;0.45;;;0.40;;
45842;SDS011;31563;51.744;8.252;2023-06-24T11:17:42;1.63;;;0.50;;
45842;SDS011;31563;51.744;8.252;2023-06-24T11:20:11;0.40;;;0.40;;
45842;SDS011;31563;51.744;8.252;2023-06-24T11:22:41;0.30;;;0.30;;
45842;SDS011;31563;51.744;8.252;2023-06-24T11:25:16;0.45;;;0.45;;
45842;SDS011;31563;51.744;8.252;2023-06-24T11:27:47;1.08;;;0.30;;
45842;SDS011;31563;51.744;8.252;2023-06-24T11:30:17;0.30;;;0.30;;
45842;SDS011;31563;51.744;8.252;2023-06-24T11:32:45;0.40;;;0.40;;
45842;SDS011;31563;51.744;8.252;2023-06-24T11:35:14;0.35;;;0.30;;
45842;SDS011;31563;51.744;8.252;2023-06-24T11:37:43;0.30;;;0.30;;
45842;SDS011;31563;51.744;8.252;2023-06-24T11:40:13;0.40;;;0.40;;
45842;SDS011;31563;51.744;8.252;2023-06-24T11:42:47;0.40;;;0.40;;
45842;SDS011;31563;51.744;8.252;2023-06-24T11:45:19;0.40;;;0.40;;
45842;SDS011;31563;51.744;8.252;2023-06-24T11:47:48;1.20;;;0.40;;
45842;SDS011;31563;51.744;8.252;2023-06-24T11:50:18;0.38;;;0.38;;
45842;SDS011;31563;51.744;8.252;2023-06-24T11:52:53;0.40;;;0.40;;
45842;SDS011;31563;51.744;8.252;2023-06-24T11:55:22;0.43;;;0.40;;
45842;SDS011;31563;51.744;8.252;2023-06-24T11:57:54;0.30;;;0.30;;
45842;SDS011;31563;51.744;8.252;2023-06-24T12:00:25;0.40;;;0.40;;
45842;SDS011;31563;51.744;8.252;2023-06-24T12:02:54;0.32;;;0.30;;
45842;SDS011;31563;51.744;8.252;2023-06-24T12:05:25;0.30;;;0.30;;
45842;SDS011;31563;51.744;8.252;2023-06-24T12:07:55;0.45;;;0.45;;
45842;SDS011;31563;51.744;8.252;2023-06-24T12:10:24;0.38;;;0.38;;
45842;SDS011;31563;51.744;8.252;2023-06-24T12:12:55;0.40;;;0.40;;
45842;SDS011;31563;51.744;8.252;2023-06-24T12:15:24;0.30;;;0.30;;
45842;SDS011;31563;51.744;8.252;2023-06-24T12:17:52;0.38;;;0.38;;
45842;SDS011;31563;51.744;8.252;2023-06-24T12:20:20;0.50;;;0.38;;
45842;SDS011;31563;51.744;8.252;2023-06-24T12:22:49;0.40;;;0.40;;
45842;SDS011;31563;51.744;8.252;2023-06-24T12:25:17;0.30;;;0.30;;
45842;SDS011;31563;51.744;8.252;2023-06-24T12:27:45;0.45;;;0.30;;
45842;SDS011;31563;51.744;8.252;2023-06-24T12:30:15;0.30;;;0.20;;
45842;SDS011;31563;51.744;8.252;2023-06-24T12:32:43;0.50;;;0.40;;
45842;SDS011;31563;51.744;8.252;2023-06-24T12:35:12;0.30;;;0.30;;
45842;SDS011;31563;51.744;8.252;2023-06-24T12:37:40;0.50;;;0.40;;
45842;SDS011;31563;51.744;8.252;2023-06-24T12:40:08;0.20;;;0.20;;
45842;SDS011;31563;51.744;8.252;2023-06-24T12:42:37;0.20;;;0.20;;
45842;SDS011;31563;51.744;8.252;2023-06-24T12:45:05;0.73;;;0.20;;
45842;SDS011;31563;51.744;8.252;2023-06-24T12:47:35;0.40;;;0.30;;
45842;SDS011;31563;51.744;8.252;2023-06-24T12:50:04;0.50;;;0.50;;
45842;SDS011;31563;51.744;8.252;2023-06-24T12:52:35;0.30;;;0.30;;
45842;SDS011;31563;51.744;8.252;2023-06-24T12:55:04;0.40;;;0.40;;
45842;SDS011;31563;51.744;8.252;2023-06-24T12:57:34;0.30;;;0.30;;
45842;SDS011;31563;51.744;8.252;2023-06-24T13:00:03;0.30;;;0.30;;
45842;SDS011;31563;51.744;8.252;2023-06-24T13:02:32;0.30;;;0.30;;
45842;SDS011;31563;51.744;8.252;2023-06-24T13:05:02;0.30;;;0.30;;
45842;SDS011;31563;51.744;8.252;2023-06-24T13:07:31;0.25;;;0.25;;
45842;SDS011;31563;51.744;8.252;2023-06-24T13:09:59;0.40;;;0.40;;
45842;SDS011;31563;51.744;8.252;2023-06-24T13:12:28;0.20;;;0.20;;
45842;SDS011;31563;51.744;8.252;2023-06-24T13:14:56;0.40;;;0.40;;
45842;SDS011;31563;51.744;8.252;2023-06-24T13:17:24;0.75;;;0.40;;
45842;SDS011;31563;51.744;8.252;2023-06-24T13:19:52;0.40;;;0.40;;
45842;SDS011;31563;51.744;8.252;2023-06-24T13:22:22;0.38;;;0.30;;
45842;SDS011;31563;51.744;8.252;2023-06-24T13:24:50;0.50;;;0.45;;
45842;SDS011;31563;51.744;8.252;2023-06-24T13:27:18;0.50;;;0.50;;
45842;SDS011;31563;51.744;8.252;2023-06-24T13:29:47;0.40;;;0.40;;
45842;SDS011;31563;51.744;8.252;2023-06-24T13:32:15;0.60;;;0.45;;
45842;SDS011;31563;51.744;8.252;2023-06-24T13:34:43;0.45;;;0.45;;
45842;SDS011;31563;51.744;8.252;2023-06-24T13:37:11;0.80;;;0.50;;
45842;SDS011;31563;51.744;8.252;2023-06-24T13:39:43;0.50;;;0.30;;
45842;SDS011;31563;51.744;8.252;2023-06-24T13:42:11;0.40;;;0.40;;
45842;SDS011;31563;51.744;8.252;2023-06-24T13:44:39;0.40;;;0.40;;
45842;SDS011;31563;51.744;8.252;2023-06-24T13:47:07;0.30;;;0.30;;
45842;SDS011;31563;51.744;8.252;2023-06-24T13:49:36;0.85;;;0.40;;
45842;SDS011;31563;51.744;8.252;2023-06-24T13:52:04;0.50;;;0.47;;
45842;SDS011;31563;51.744;8.252;2023-06-24T13:54:34;0.30;;;0.25;;
45842;SDS011;31563;51.744;8.252;2023-06-24T13:57:03;0.45;;;0.40;;
45842;SDS011;31563;51.744;8.252;2023-06-24T13:59:32;0.40;;;0.40;;
45842;SDS011;31563;51.744;8.252;2023-06-24T14:02:00;0.63;;;0.57;;
45842;SDS011;31563;51.744;8.252;2023-06-24T14:04:28;0.40;;;0.40;;
45842;SDS011;31563;51.744;8.252;2023-06-24T14:06:56;0.40;;;0.40;;
45842;SDS011;31563;51.744;8.252;2023-06-24T14:09:24;0.40;;;0.40;;
45842;SDS011;31563;51.744;8.252;2023-06-24T14:11:53;0.50;;;0.50;;
45842;SDS011;31563;51.744;8.252;2023-06-24T14:14:23;0.50;;;0.50;;
45842;SDS011;31563;51.744;8.252;2023-06-24T14:16:51;0.40;;;0.40;;
45842;SDS011;31563;51.744;8.252;2023-06-24T14:19:19;0.40;;;0.40;;
45842;SDS011;31563;51.744;8.252;2023-06-24T14:21:51;0.50;;;0.50;;
45842;SDS011;31563;51.744;8.252;2023-06-24T14:24:19;0.38;;;0.38;;
45842;SDS011;31563;51.744;8.252;2023-06-24T14:26:47;0.38;;;0.30;;
45842;SDS011;31563;51.744;8.252;2023-06-24T14:29:16;0.40;;;0.32;;
45842;SDS011;31563;51.744;8.252;2023-06-24T14:31:46;0.55;;;0.40;;
45842;SDS011;31563;51.744;8.252;2023-06-24T14:34:14;0.30;;;0.30;;
45842;SDS011;31563;51.744;8.252;2023-06-24T14:36:42;0.47;;;0.40;;
45842;SDS011;31563;51.744;8.252;2023-06-24T14:39:13;0.45;;;0.45;;
45842;SDS011;31563;51.744;8.252;2023-06-24T14:41:42;0.60;;;0.43;;
45842;SDS011;31563;51.744;8.252;2023-06-24T14:44:11;0.40;;;0.40;;
45842;SDS011;31563;51.744;8.252;2023-06-24T14:46:39;1.58;;;0.40;;
45842;SDS011;31563;51.744;8.252;2023-06-24T14:49:09;0.98;;;0.50;;
45842;SDS011;31563;51.744;8.252;2023-06-24T14:51:37;0.45;;;0.45;;
45842;SDS011;31563;51.744;8.252;2023-06-24T14:54:05;0.40;;;0.40;;
45842;SDS011;31563;51.744;8.252;2023-06-24T14:56:33;0.30;;;0.30;;
45842;SDS011;31563;51.744;8.252;2023-06-24T14:59:01;0.50;;;0.47;;
45842;SDS011;31563;51.744;8.252;2023-06-24T15:01:29;0.38;;;0.38;;
45842;SDS011;31563;51.744;8.252;2023-06-24T15:03:58;0.40;;;0.40;;
45842;SDS011;31563;51.744;8.252;2023-06-24T15:06:27;0.40;;;0.40;;
45842;SDS011;31563;51.744;8.252;2023-06-24T15:08:55;0.40;;;0.40;;
45842;SDS011;31563;51.744;8.252;2023-06-24T15:11:24;0.40;;;0.40;;
45842;SDS011;31563;51.744;8.252;2023-06-24T15:13:52;0.40;;;0.40;;
45842;SDS011;31563;51.744;8.252;2023-06-24T15:16:20;0.60;;;0.60;;
45842;SDS011;31563;51.744;8.252;2023-06-24T15:18:48;0.43;;;0.40;;
45842;SDS011;31563;51.744;8.252;2023-06-24T15:21:17;0.50;;;0.40;;
45842;SDS011;31563;51.744;8.252;2023-06-24T15:24:03;0.50;;;0.43;;
45842;SDS011;31563;51.744;8.252;2023-06-24T15:26:32;0.40;;;0.40;;
45842;SDS011;31563;51.744;8.252;2023-06-24T15:29:00;0.45;;;0.45;;
45842;SDS011;31563;51.744;8.252;2023-06-24T15:31:28;0.40;;;0.40;;
45842;SDS011;31563;51.744;8.252;2023-06-24T15:33:57;0.60;;;0.50;;
45842;SDS011;31563;51.744;8.252;2023-06-24T15:36:25;0.32;;;0.30;;
45842;SDS011;31563;51.744;8.252;2023-06-24T15:38:55;0.50;;;0.50;;